sensor_id;sensor_type;location;lat;lon;timestamp;P1;durP1;ratioP1;P2;durP2;ratioP2
10851;SDS011;5479;52.046;6.314;2022-08-04T00:02:34;8.20;;;4.47;;
10851;SDS011;5479;52.046;6.314;2022-08-04T00:05:17;7.32;;;4.93;;
10851;SDS011;5479;52.046;6.314;2022-08-04T00:07:58;9.93;;;5.55;;
10851;SDS011;5479;52.046;6.314;2022-08-04T00:10:31;8.45;;;5.32;;
10851;SDS011;5479;52.046;6.314;2022-08-04T00:13:03;9.02;;;5.32;;
10851;SDS011;5479;52.046;6.314;2022-08-04T00:15:32;10.25;;;5.65;;
10851;SDS011;5479;52.046;6.314;2022-08-04T00:18:02;7.18;;;5.57;;
10851;SDS011;5479;52.046;6.314;2022-08-04T00:20:32;8.23;;;5.70;;
10851;SDS011;5479;52.046;6.314;2022-08-04T00:23:01;8.30;;;5.75;;
10851;SDS011;5479;52.046;6.314;2022-08-04T00:25:29;8.82;;;5.70;;
10851;SDS011;5479;52.046;6.314;2022-08-04T00:27:58;9.98;;;5.80;;
10851;SDS011;5479;52.046;6.314;2022-08-04T00:30:28;8.27;;;5.93;;
10851;SDS011;5479;52.046;6.314;2022-08-04T00:32:57;8.70;;;5.45;;
10851;SDS011;5479;52.046;6.314;2022-08-04T00:35:26;10.35;;;6.25;;
10851;SDS011;5479;52.046;6.314;2022-08-04T00:37:55;9.30;;;5.53;;
10851;SDS011;5479;52.046;6.314;2022-08-04T00:40:28;11.52;;;6.00;;
10851;SDS011;5479;52.046;6.314;2022-08-04T00:43:04;9.38;;;5.88;;
10851;SDS011;5479;52.046;6.314;2022-08-04T00:45:47;7.68;;;5.53;;
10851;SDS011;5479;52.046;6.314;2022-08-04T00:48:32;9.85;;;6.18;;
10851;SDS011;5479;52.046;6.314;2022-08-04T00:51:14;8.57;;;6.63;;
10851;SDS011;5479;52.046;6.314;2022-08-04T00:53:53;12.05;;;6.38;;
10851;SDS011;5479;52.046;6.314;2022-08-04T00:56:40;8.85;;;5.90;;
10851;SDS011;5479;52.046;6.314;2022-08-04T00:59:26;7.57;;;6.03;;
10851;SDS011;5479;52.046;6.314;2022-08-04T01:02:08;10.35;;;6.18;;
10851;SDS011;5479;52.046;6.314;2022-08-04T01:04:44;10.25;;;6.43;;
10851;SDS011;5479;52.046;6.314;2022-08-04T01:07:29;9.63;;;6.60;;
10851;SDS011;5479;52.046;6.314;2022-08-04T01:10:08;8.73;;;6.80;;
10851;SDS011;5479;52.046;6.314;2022-08-04T01:12:49;7.93;;;6.07;;
10851;SDS011;5479;52.046;6.314;2022-08-04T01:15:29;10.73;;;6.60;;
10851;SDS011;5479;52.046;6.314;2022-08-04T01:18:08;8.77;;;6.65;;
10851;SDS011;5479;52.046;6.314;2022-08-04T01:20:49;10.43;;;7.30;;
10851;SDS011;5479;52.046;6.314;2022-08-04T01:26:39;8.50;;;6.60;;
10851;SDS011;5479;52.046;6.314;2022-08-04T01:29:16;11.05;;;7.30;;
10851;SDS011;5479;52.046;6.314;2022-08-04T01:31:49;10.05;;;7.00;;
10851;SDS011;5479;52.046;6.314;2022-08-04T01:34:22;11.45;;;6.70;;
10851;SDS011;5479;52.046;6.314;2022-08-04T01:36:57;12.23;;;6.70;;
10851;SDS011;5479;52.046;6.314;2022-08-04T01:39:29;8.95;;;6.07;;
10851;SDS011;5479;52.046;6.314;2022-08-04T01:42:07;9.93;;;6.90;;
10851;SDS011;5479;52.046;6.314;2022-08-04T01:44:38;9.95;;;6.40;;
10851;SDS011;5479;52.046;6.314;2022-08-04T01:47:08;9.43;;;7.03;;
10851;SDS011;5479;52.046;6.314;2022-08-04T01:49:37;11.98;;;7.18;;
10851;SDS011;5479;52.046;6.314;2022-08-04T01:52:06;12.80;;;7.90;;
10851;SDS011;5479;52.046;6.314;2022-08-04T01:54:37;10.93;;;6.95;;
10851;SDS011;5479;52.046;6.314;2022-08-04T01:57:08;9.18;;;6.18;;
10851;SDS011;5479;52.046;6.314;2022-08-04T01:59:38;10.00;;;6.47;;
10851;SDS011;5479;52.046;6.314;2022-08-04T02:02:06;9.60;;;7.40;;
10851;SDS011;5479;52.046;6.314;2022-08-04T02:04:34;10.82;;;7.22;;
10851;SDS011;5479;52.046;6.314;2022-08-04T02:07:05;14.48;;;8.02;;
10851;SDS011;5479;52.046;6.314;2022-08-04T02:09:47;12.13;;;8.00;;
10851;SDS011;5479;52.046;6.314;2022-08-04T02:12:26;10.63;;;7.63;;
10851;SDS011;5479;52.046;6.314;2022-08-04T02:15:19;9.80;;;7.45;;
10851;SDS011;5479;52.046;6.314;2022-08-04T02:17:58;10.25;;;7.75;;
10851;SDS011;5479;52.046;6.314;2022-08-04T02:20:29;12.98;;;8.02;;
10851;SDS011;5479;52.046;6.314;2022-08-04T02:23:02;10.15;;;7.85;;
10851;SDS011;5479;52.046;6.314;2022-08-04T02:25:33;10.68;;;8.32;;
10851;SDS011;5479;52.046;6.314;2022-08-04T02:28:11;11.07;;;8.32;;
10851;SDS011;5479;52.046;6.314;2022-08-04T02:30:57;11.23;;;8.10;;
10851;SDS011;5479;52.046;6.314;2022-08-04T02:33:34;11.63;;;7.47;;
10851;SDS011;5479;52.046;6.314;2022-08-04T02:36:04;14.82;;;7.88;;
10851;SDS011;5479;52.046;6.314;2022-08-04T02:38:46;9.50;;;7.38;;
10851;SDS011;5479;52.046;6.314;2022-08-04T02:41:22;12.75;;;7.30;;
10851;SDS011;5479;52.046;6.314;2022-08-04T02:43:53;11.60;;;7.70;;
10851;SDS011;5479;52.046;6.314;2022-08-04T02:46:24;9.70;;;7.17;;
10851;SDS011;5479;52.046;6.314;2022-08-04T02:48:53;9.57;;;6.85;;
10851;SDS011;5479;52.046;6.314;2022-08-04T02:51:23;8.15;;;6.35;;
10851;SDS011;5479;52.046;6.314;2022-08-04T02:53:52;11.35;;;7.05;;
10851;SDS011;5479;52.046;6.314;2022-08-04T02:56:22;10.43;;;6.85;;
10851;SDS011;5479;52.046;6.314;2022-08-04T02:58:52;9.40;;;6.53;;
10851;SDS011;5479;52.046;6.314;2022-08-04T03:01:24;9.82;;;6.18;;
10851;SDS011;5479;52.046;6.314;2022-08-04T03:03:55;9.77;;;6.50;;
10851;SDS011;5479;52.046;6.314;2022-08-04T03:06:52;9.15;;;6.45;;
10851;SDS011;5479;52.046;6.314;2022-08-04T03:19:37;10.32;;;6.53;;
10851;SDS011;5479;52.046;6.314;2022-08-04T03:22:30;11.32;;;6.05;;
10851;SDS011;5479;52.046;6.314;2022-08-04T03:25:29;8.52;;;5.65;;
10851;SDS011;5479;52.046;6.314;2022-08-04T03:28:34;10.82;;;5.45;;
10851;SDS011;5479;52.046;6.314;2022-08-04T03:31:33;11.57;;;5.70;;
10851;SDS011;5479;52.046;6.314;2022-08-04T03:37:18;11.48;;;5.90;;
10851;SDS011;5479;52.046;6.314;2022-08-04T03:46:29;13.43;;;5.53;;
10851;SDS011;5479;52.046;6.314;2022-08-04T03:49:29;12.32;;;5.22;;
10851;SDS011;5479;52.046;6.314;2022-08-04T03:55:44;13.25;;;4.63;;
10851;SDS011;5479;52.046;6.314;2022-08-04T03:58:38;10.77;;;4.60;;
10851;SDS011;5479;52.046;6.314;2022-08-04T04:01:31;9.98;;;4.78;;
10851;SDS011;5479;52.046;6.314;2022-08-04T04:04:16;11.18;;;4.72;;
10851;SDS011;5479;52.046;6.314;2022-08-04T04:07:05;9.45;;;4.57;;
10851;SDS011;5479;52.046;6.314;2022-08-04T04:10:14;8.37;;;4.50;;
10851;SDS011;5479;52.046;6.314;2022-08-04T04:12:57;11.40;;;4.47;;
10851;SDS011;5479;52.046;6.314;2022-08-04T04:15:46;8.97;;;4.60;;
10851;SDS011;5479;52.046;6.314;2022-08-04T04:18:30;12.88;;;4.32;;
10851;SDS011;5479;52.046;6.314;2022-08-04T04:21:14;10.02;;;4.10;;
10851;SDS011;5479;52.046;6.314;2022-08-04T04:24:00;9.18;;;4.28;;
10851;SDS011;5479;52.046;6.314;2022-08-04T04:26:52;9.38;;;4.55;;
10851;SDS011;5479;52.046;6.314;2022-08-04T04:29:28;8.90;;;4.32;;
10851;SDS011;5479;52.046;6.314;2022-08-04T04:32:12;9.90;;;4.57;;
10851;SDS011;5479;52.046;6.314;2022-08-04T04:34:50;9.88;;;3.97;;
10851;SDS011;5479;52.046;6.314;2022-08-04T04:37:35;9.57;;;4.20;;
10851;SDS011;5479;52.046;6.314;2022-08-04T04:40:19;8.95;;;4.38;;
10851;SDS011;5479;52.046;6.314;2022-08-04T04:43:02;11.25;;;4.47;;
10851;SDS011;5479;52.046;6.314;2022-08-04T04:45:40;9.05;;;4.47;;
10851;SDS011;5479;52.046;6.314;2022-08-04T04:48:18;8.13;;;4.25;;
10851;SDS011;5479;52.046;6.314;2022-08-04T04:50:56;11.57;;;4.15;;
10851;SDS011;5479;52.046;6.314;2022-08-04T04:53:33;10.27;;;4.45;;
10851;SDS011;5479;52.046;6.314;2022-08-04T04:56:11;9.65;;;4.15;;
10851;SDS011;5479;52.046;6.314;2022-08-04T04:58:45;8.35;;;3.60;;
10851;SDS011;5479;52.046;6.314;2022-08-04T05:01:20;11.20;;;4.15;;
10851;SDS011;5479;52.046;6.314;2022-08-04T05:07:34;10.98;;;4.55;;
10851;SDS011;5479;52.046;6.314;2022-08-04T05:10:22;12.80;;;4.47;;
10851;SDS011;5479;52.046;6.314;2022-08-04T05:13:05;13.38;;;4.40;;
10851;SDS011;5479;52.046;6.314;2022-08-04T05:15:46;9.40;;;4.28;;
10851;SDS011;5479;52.046;6.314;2022-08-04T05:18:18;13.48;;;4.20;;
10851;SDS011;5479;52.046;6.314;2022-08-04T05:20:50;11.68;;;4.38;;
10851;SDS011;5479;52.046;6.314;2022-08-04T05:23:20;14.27;;;5.00;;
10851;SDS011;5479;52.046;6.314;2022-08-04T05:25:51;10.57;;;4.13;;
10851;SDS011;5479;52.046;6.314;2022-08-04T05:28:24;11.15;;;4.53;;
10851;SDS011;5479;52.046;6.314;2022-08-04T05:30:58;11.98;;;4.07;;
10851;SDS011;5479;52.046;6.314;2022-08-04T05:33:30;10.60;;;4.30;;
10851;SDS011;5479;52.046;6.314;2022-08-04T05:36:02;10.27;;;3.97;;
10851;SDS011;5479;52.046;6.314;2022-08-04T05:38:35;10.57;;;4.25;;
10851;SDS011;5479;52.046;6.314;2022-08-04T05:41:06;12.80;;;4.40;;
10851;SDS011;5479;52.046;6.314;2022-08-04T05:43:36;10.73;;;4.35;;
10851;SDS011;5479;52.046;6.314;2022-08-04T05:46:08;10.50;;;4.32;;
10851;SDS011;5479;52.046;6.314;2022-08-04T05:48:38;12.38;;;4.30;;
10851;SDS011;5479;52.046;6.314;2022-08-04T05:51:08;9.93;;;3.90;;
10851;SDS011;5479;52.046;6.314;2022-08-04T05:53:37;11.52;;;3.90;;
10851;SDS011;5479;52.046;6.314;2022-08-04T05:56:09;14.52;;;4.07;;
10851;SDS011;5479;52.046;6.314;2022-08-04T05:58:40;11.25;;;4.25;;
10851;SDS011;5479;52.046;6.314;2022-08-04T06:01:10;9.65;;;4.30;;
10851;SDS011;5479;52.046;6.314;2022-08-04T06:03:40;16.40;;;4.43;;
10851;SDS011;5479;52.046;6.314;2022-08-04T06:06:10;12.07;;;4.75;;
10851;SDS011;5479;52.046;6.314;2022-08-04T06:08:39;9.63;;;4.22;;
10851;SDS011;5479;52.046;6.314;2022-08-04T06:11:07;11.82;;;5.00;;
10851;SDS011;5479;52.046;6.314;2022-08-04T06:13:39;12.82;;;4.90;;
10851;SDS011;5479;52.046;6.314;2022-08-04T06:16:12;14.38;;;4.78;;
10851;SDS011;5479;52.046;6.314;2022-08-04T06:18:42;10.75;;;4.43;;
10851;SDS011;5479;52.046;6.314;2022-08-04T06:21:15;11.77;;;4.43;;
10851;SDS011;5479;52.046;6.314;2022-08-04T06:23:45;9.70;;;3.90;;
10851;SDS011;5479;52.046;6.314;2022-08-04T06:26:14;13.20;;;4.60;;
10851;SDS011;5479;52.046;6.314;2022-08-04T06:28:45;11.57;;;4.30;;
10851;SDS011;5479;52.046;6.314;2022-08-04T06:31:16;10.82;;;4.15;;
10851;SDS011;5479;52.046;6.314;2022-08-04T06:33:59;11.00;;;4.30;;
10851;SDS011;5479;52.046;6.314;2022-08-04T06:36:29;13.15;;;4.30;;
10851;SDS011;5479;52.046;6.314;2022-08-04T06:38:58;11.48;;;4.05;;
10851;SDS011;5479;52.046;6.314;2022-08-04T06:41:27;9.73;;;4.20;;
10851;SDS011;5479;52.046;6.314;2022-08-04T06:43:56;11.70;;;4.55;;
10851;SDS011;5479;52.046;6.314;2022-08-04T06:46:27;9.02;;;3.58;;
10851;SDS011;5479;52.046;6.314;2022-08-04T06:48:56;10.43;;;4.43;;
10851;SDS011;5479;52.046;6.314;2022-08-04T06:51:24;17.30;;;4.90;;
10851;SDS011;5479;52.046;6.314;2022-08-04T06:53:54;14.35;;;4.68;;
10851;SDS011;5479;52.046;6.314;2022-08-04T06:56:22;12.00;;;4.43;;
10851;SDS011;5479;52.046;6.314;2022-08-04T06:58:52;11.50;;;4.97;;
10851;SDS011;5479;52.046;6.314;2022-08-04T07:01:22;9.05;;;4.53;;
10851;SDS011;5479;52.046;6.314;2022-08-04T07:03:54;9.98;;;4.47;;
10851;SDS011;5479;52.046;6.314;2022-08-04T07:06:22;15.18;;;5.90;;
10851;SDS011;5479;52.046;6.314;2022-08-04T07:08:51;12.13;;;5.05;;
10851;SDS011;5479;52.046;6.314;2022-08-04T07:11:21;11.07;;;5.03;;
10851;SDS011;5479;52.046;6.314;2022-08-04T07:13:49;9.63;;;4.80;;
10851;SDS011;5479;52.046;6.314;2022-08-04T07:16:19;7.72;;;4.03;;
10851;SDS011;5479;52.046;6.314;2022-08-04T07:18:48;11.98;;;4.82;;
10851;SDS011;5479;52.046;6.314;2022-08-04T07:21:19;11.23;;;5.28;;
10851;SDS011;5479;52.046;6.314;2022-08-04T07:23:48;8.38;;;4.43;;
10851;SDS011;5479;52.046;6.314;2022-08-04T07:26:17;12.48;;;5.07;;
10851;SDS011;5479;52.046;6.314;2022-08-04T07:28:45;10.73;;;5.32;;
10851;SDS011;5479;52.046;6.314;2022-08-04T07:31:14;8.18;;;3.88;;
10851;SDS011;5479;52.046;6.314;2022-08-04T07:33:43;11.00;;;4.60;;
10851;SDS011;5479;52.046;6.314;2022-08-04T07:36:15;8.93;;;3.83;;
10851;SDS011;5479;52.046;6.314;2022-08-04T07:38:45;8.75;;;3.88;;
10851;SDS011;5479;52.046;6.314;2022-08-04T07:41:13;8.98;;;4.05;;
10851;SDS011;5479;52.046;6.314;2022-08-04T07:43:50;8.52;;;3.80;;
10851;SDS011;5479;52.046;6.314;2022-08-04T07:46:20;7.90;;;4.20;;
10851;SDS011;5479;52.046;6.314;2022-08-04T07:48:48;9.82;;;3.40;;
10851;SDS011;5479;52.046;6.314;2022-08-04T07:51:16;9.63;;;4.15;;
10851;SDS011;5479;52.046;6.314;2022-08-04T07:53:46;9.80;;;4.10;;
10851;SDS011;5479;52.046;6.314;2022-08-04T07:56:14;9.95;;;4.65;;
10851;SDS011;5479;52.046;6.314;2022-08-04T07:58:43;10.25;;;4.18;;
10851;SDS011;5479;52.046;6.314;2022-08-04T08:01:11;11.80;;;5.47;;
10851;SDS011;5479;52.046;6.314;2022-08-04T08:03:40;10.25;;;5.43;;
10851;SDS011;5479;52.046;6.314;2022-08-04T08:06:09;9.15;;;4.03;;
10851;SDS011;5479;52.046;6.314;2022-08-04T08:08:37;9.98;;;3.85;;
10851;SDS011;5479;52.046;6.314;2022-08-04T08:11:07;11.43;;;4.18;;
10851;SDS011;5479;52.046;6.314;2022-08-04T08:13:36;9.02;;;4.55;;
10851;SDS011;5479;52.046;6.314;2022-08-04T08:16:05;8.80;;;4.78;;
10851;SDS011;5479;52.046;6.314;2022-08-04T08:18:33;8.95;;;4.07;;
10851;SDS011;5479;52.046;6.314;2022-08-04T08:21:01;10.20;;;4.72;;
10851;SDS011;5479;52.046;6.314;2022-08-04T08:23:29;11.35;;;4.80;;
10851;SDS011;5479;52.046;6.314;2022-08-04T08:25:58;9.10;;;5.18;;
10851;SDS011;5479;52.046;6.314;2022-08-04T08:28:27;10.38;;;4.65;;
10851;SDS011;5479;52.046;6.314;2022-08-04T08:30:55;9.88;;;4.95;;
10851;SDS011;5479;52.046;6.314;2022-08-04T08:33:23;8.55;;;4.88;;
10851;SDS011;5479;52.046;6.314;2022-08-04T08:35:59;12.55;;;4.80;;
10851;SDS011;5479;52.046;6.314;2022-08-04T08:38:36;9.32;;;4.40;;
10851;SDS011;5479;52.046;6.314;2022-08-04T08:41:20;10.57;;;5.20;;
10851;SDS011;5479;52.046;6.314;2022-08-04T08:44:11;12.68;;;5.32;;
10851;SDS011;5479;52.046;6.314;2022-08-04T08:47:01;10.43;;;4.90;;
10851;SDS011;5479;52.046;6.314;2022-08-04T08:49:48;9.93;;;5.10;;
10851;SDS011;5479;52.046;6.314;2022-08-04T08:52:37;10.82;;;4.53;;
10851;SDS011;5479;52.046;6.314;2022-08-04T08:55:22;11.50;;;4.53;;
10851;SDS011;5479;52.046;6.314;2022-08-04T08:58:02;10.88;;;4.72;;
10851;SDS011;5479;52.046;6.314;2022-08-04T09:00:52;10.38;;;4.97;;
10851;SDS011;5479;52.046;6.314;2022-08-04T09:03:33;10.90;;;5.38;;
10851;SDS011;5479;52.046;6.314;2022-08-04T09:09:14;10.43;;;4.95;;
10851;SDS011;5479;52.046;6.314;2022-08-04T09:12:04;9.43;;;4.35;;
10851;SDS011;5479;52.046;6.314;2022-08-04T09:14:38;10.60;;;4.60;;
10851;SDS011;5479;52.046;6.314;2022-08-04T09:17:17;8.23;;;4.43;;
10851;SDS011;5479;52.046;6.314;2022-08-04T09:19:50;8.88;;;4.88;;
10851;SDS011;5479;52.046;6.314;2022-08-04T09:22:27;13.18;;;5.35;;
10851;SDS011;5479;52.046;6.314;2022-08-04T09:25:01;11.90;;;4.97;;
10851;SDS011;5479;52.046;6.314;2022-08-04T09:27:34;9.40;;;4.50;;
10851;SDS011;5479;52.046;6.314;2022-08-04T09:30:10;8.13;;;4.40;;
10851;SDS011;5479;52.046;6.314;2022-08-04T09:32:43;12.27;;;4.80;;
10851;SDS011;5479;52.046;6.314;2022-08-04T09:35:24;10.68;;;4.38;;
10851;SDS011;5479;52.046;6.314;2022-08-04T09:38:03;14.38;;;5.38;;
10851;SDS011;5479;52.046;6.314;2022-08-04T09:40:44;10.73;;;4.90;;
10851;SDS011;5479;52.046;6.314;2022-08-04T09:43:30;10.70;;;5.22;;
10851;SDS011;5479;52.046;6.314;2022-08-04T09:46:04;11.05;;;5.45;;
10851;SDS011;5479;52.046;6.314;2022-08-04T09:48:41;9.15;;;4.75;;
10851;SDS011;5479;52.046;6.314;2022-08-04T09:51:15;13.55;;;5.25;;
10851;SDS011;5479;52.046;6.314;2022-08-04T09:53:53;9.25;;;4.80;;
10851;SDS011;5479;52.046;6.314;2022-08-04T09:56:29;7.53;;;3.85;;
10851;SDS011;5479;52.046;6.314;2022-08-04T09:59:05;10.60;;;4.50;;
10851;SDS011;5479;52.046;6.314;2022-08-04T10:01:42;6.82;;;3.33;;
10851;SDS011;5479;52.046;6.314;2022-08-04T10:04:14;9.40;;;3.50;;
10851;SDS011;5479;52.046;6.314;2022-08-04T10:06:47;7.43;;;3.63;;
10851;SDS011;5479;52.046;6.314;2022-08-04T10:09:32;8.60;;;3.70;;
10851;SDS011;5479;52.046;6.314;2022-08-04T10:12:14;7.88;;;3.80;;
10851;SDS011;5479;52.046;6.314;2022-08-04T10:14:52;9.70;;;4.28;;
10851;SDS011;5479;52.046;6.314;2022-08-04T10:17:36;9.23;;;4.32;;
10851;SDS011;5479;52.046;6.314;2022-08-04T10:20:18;8.63;;;3.92;;
10851;SDS011;5479;52.046;6.314;2022-08-04T10:22:56;9.55;;;3.95;;
10851;SDS011;5479;52.046;6.314;2022-08-04T10:25:34;9.27;;;3.92;;
10851;SDS011;5479;52.046;6.314;2022-08-04T10:28:13;7.28;;;3.50;;
10851;SDS011;5479;52.046;6.314;2022-08-04T10:30:46;8.73;;;3.08;;
10851;SDS011;5479;52.046;6.314;2022-08-04T10:33:20;9.38;;;3.50;;
10851;SDS011;5479;52.046;6.314;2022-08-04T10:35:56;5.20;;;3.30;;
10851;SDS011;5479;52.046;6.314;2022-08-04T10:38:28;8.98;;;3.13;;
10851;SDS011;5479;52.046;6.314;2022-08-04T10:40:59;7.28;;;3.38;;
10851;SDS011;5479;52.046;6.314;2022-08-04T10:43:38;11.85;;;3.47;;
10851;SDS011;5479;52.046;6.314;2022-08-04T10:46:11;8.10;;;3.50;;
10851;SDS011;5479;52.046;6.314;2022-08-04T10:48:43;9.82;;;3.55;;
10851;SDS011;5479;52.046;6.314;2022-08-04T10:51:20;9.25;;;4.05;;
10851;SDS011;5479;52.046;6.314;2022-08-04T10:53:57;8.93;;;3.90;;
10851;SDS011;5479;52.046;6.314;2022-08-04T10:56:31;7.78;;;3.88;;
10851;SDS011;5479;52.046;6.314;2022-08-04T10:59:02;10.90;;;4.47;;
10851;SDS011;5479;52.046;6.314;2022-08-04T11:01:36;10.10;;;4.15;;
10851;SDS011;5479;52.046;6.314;2022-08-04T11:04:09;10.48;;;4.20;;
10851;SDS011;5479;52.046;6.314;2022-08-04T11:06:44;10.82;;;3.92;;
10851;SDS011;5479;52.046;6.314;2022-08-04T11:09:13;8.50;;;3.78;;
10851;SDS011;5479;52.046;6.314;2022-08-04T11:11:45;6.97;;;3.80;;
10851;SDS011;5479;52.046;6.314;2022-08-04T11:14:21;7.85;;;3.72;;
10851;SDS011;5479;52.046;6.314;2022-08-04T11:16:56;8.30;;;3.72;;
10851;SDS011;5479;52.046;6.314;2022-08-04T11:19:30;6.43;;;3.70;;
10851;SDS011;5479;52.046;6.314;2022-08-04T11:22:09;7.00;;;4.00;;
10851;SDS011;5479;52.046;6.314;2022-08-04T11:24:43;8.50;;;4.53;;
10851;SDS011;5479;52.046;6.314;2022-08-04T11:27:18;16.33;;;6.10;;
10851;SDS011;5479;52.046;6.314;2022-08-04T11:29:55;19.20;;;7.35;;
10851;SDS011;5479;52.046;6.314;2022-08-04T11:32:31;16.80;;;7.63;;
10851;SDS011;5479;52.046;6.314;2022-08-04T11:35:05;19.70;;;7.75;;
10851;SDS011;5479;52.046;6.314;2022-08-04T11:37:41;15.90;;;8.35;;
10851;SDS011;5479;52.046;6.314;2022-08-04T11:40:15;14.82;;;8.25;;
10851;SDS011;5479;52.046;6.314;2022-08-04T11:42:50;19.67;;;8.90;;
10851;SDS011;5479;52.046;6.314;2022-08-04T11:45:23;18.95;;;9.15;;
10851;SDS011;5479;52.046;6.314;2022-08-04T11:47:57;14.20;;;8.77;;
10851;SDS011;5479;52.046;6.314;2022-08-04T11:50:31;13.10;;;8.75;;
10851;SDS011;5479;52.046;6.314;2022-08-04T11:53:04;15.07;;;10.13;;
10851;SDS011;5479;52.046;6.314;2022-08-04T11:55:33;15.32;;;9.73;;
10851;SDS011;5479;52.046;6.314;2022-08-04T11:58:04;20.73;;;9.55;;
10851;SDS011;5479;52.046;6.314;2022-08-04T12:00:32;14.75;;;8.70;;
10851;SDS011;5479;52.046;6.314;2022-08-04T12:03:10;12.07;;;9.07;;
10851;SDS011;5479;52.046;6.314;2022-08-04T12:05:49;14.27;;;8.32;;
10851;SDS011;5479;52.046;6.314;2022-08-04T12:08:32;14.50;;;8.98;;
10851;SDS011;5479;52.046;6.314;2022-08-04T12:11:20;13.77;;;8.60;;
10851;SDS011;5479;52.046;6.314;2022-08-04T12:13:56;13.85;;;8.32;;
10851;SDS011;5479;52.046;6.314;2022-08-04T12:16:37;15.40;;;7.80;;
10851;SDS011;5479;52.046;6.314;2022-08-04T12:19:12;14.75;;;8.23;;
10851;SDS011;5479;52.046;6.314;2022-08-04T12:21:48;13.23;;;8.23;;
10851;SDS011;5479;52.046;6.314;2022-08-04T12:24:22;12.50;;;7.57;;
10851;SDS011;5479;52.046;6.314;2022-08-04T12:26:56;15.55;;;7.03;;
10851;SDS011;5479;52.046;6.314;2022-08-04T12:29:30;12.60;;;6.85;;
10851;SDS011;5479;52.046;6.314;2022-08-04T12:32:03;10.82;;;6.75;;
10851;SDS011;5479;52.046;6.314;2022-08-04T12:34:48;13.18;;;7.40;;
10851;SDS011;5479;52.046;6.314;2022-08-04T12:37:25;12.60;;;7.20;;
10851;SDS011;5479;52.046;6.314;2022-08-04T12:40:02;12.95;;;7.20;;
10851;SDS011;5479;52.046;6.314;2022-08-04T12:42:35;9.70;;;6.45;;
10851;SDS011;5479;52.046;6.314;2022-08-04T12:45:11;13.35;;;6.63;;
10851;SDS011;5479;52.046;6.314;2022-08-04T12:47:40;9.35;;;6.15;;
10851;SDS011;5479;52.046;6.314;2022-08-04T12:50:12;11.20;;;6.07;;
10851;SDS011;5479;52.046;6.314;2022-08-04T12:52:46;11.32;;;5.82;;
10851;SDS011;5479;52.046;6.314;2022-08-04T12:55:17;8.75;;;6.40;;
10851;SDS011;5479;52.046;6.314;2022-08-04T12:57:47;10.40;;;6.03;;
10851;SDS011;5479;52.046;6.314;2022-08-04T13:00:24;12.77;;;5.70;;
10851;SDS011;5479;52.046;6.314;2022-08-04T13:02:57;9.80;;;5.50;;
10851;SDS011;5479;52.046;6.314;2022-08-04T13:05:27;8.98;;;5.47;;
10851;SDS011;5479;52.046;6.314;2022-08-04T13:07:57;10.75;;;5.35;;
10851;SDS011;5479;52.046;6.314;2022-08-04T13:10:29;10.05;;;5.32;;
10851;SDS011;5479;52.046;6.314;2022-08-04T13:12:58;9.77;;;4.95;;
10851;SDS011;5479;52.046;6.314;2022-08-04T13:15:27;10.35;;;5.22;;
10851;SDS011;5479;52.046;6.314;2022-08-04T13:17:59;11.07;;;5.13;;
10851;SDS011;5479;52.046;6.314;2022-08-04T13:20:31;12.00;;;5.03;;
10851;SDS011;5479;52.046;6.314;2022-08-04T13:23:04;7.38;;;4.70;;
10851;SDS011;5479;52.046;6.314;2022-08-04T13:25:35;8.93;;;4.63;;
10851;SDS011;5479;52.046;6.314;2022-08-04T13:28:07;9.45;;;4.25;;
10851;SDS011;5479;52.046;6.314;2022-08-04T13:30:42;6.95;;;4.55;;
10851;SDS011;5479;52.046;6.314;2022-08-04T13:33:13;7.70;;;4.53;;
10851;SDS011;5479;52.046;6.314;2022-08-04T13:35:43;7.85;;;4.97;;
10851;SDS011;5479;52.046;6.314;2022-08-04T13:38:13;8.90;;;4.95;;
10851;SDS011;5479;52.046;6.314;2022-08-04T13:40:44;9.27;;;4.68;;
10851;SDS011;5479;52.046;6.314;2022-08-04T13:43:21;9.73;;;4.88;;
10851;SDS011;5479;52.046;6.314;2022-08-04T13:45:50;9.40;;;4.65;;
10851;SDS011;5479;52.046;6.314;2022-08-04T13:48:29;8.23;;;4.35;;
10851;SDS011;5479;52.046;6.314;2022-08-04T13:51:03;9.20;;;4.47;;
10851;SDS011;5479;52.046;6.314;2022-08-04T13:53:32;7.95;;;4.20;;
10851;SDS011;5479;52.046;6.314;2022-08-04T13:56:04;8.82;;;4.57;;
10851;SDS011;5479;52.046;6.314;2022-08-04T13:58:38;9.00;;;5.03;;
10851;SDS011;5479;52.046;6.314;2022-08-04T14:01:12;10.40;;;4.75;;
10851;SDS011;5479;52.046;6.314;2022-08-04T14:03:44;8.95;;;4.95;;
10851;SDS011;5479;52.046;6.314;2022-08-04T14:06:24;9.65;;;4.85;;
10851;SDS011;5479;52.046;6.314;2022-08-04T14:08:55;7.55;;;4.80;;
10851;SDS011;5479;52.046;6.314;2022-08-04T14:11:35;7.55;;;4.72;;
10851;SDS011;5479;52.046;6.314;2022-08-04T14:14:18;7.75;;;4.95;;
10851;SDS011;5479;52.046;6.314;2022-08-04T14:16:54;8.80;;;4.68;;
10851;SDS011;5479;52.046;6.314;2022-08-04T14:19:23;8.38;;;4.50;;
10851;SDS011;5479;52.046;6.314;2022-08-04T14:21:51;8.48;;;4.57;;
10851;SDS011;5479;52.046;6.314;2022-08-04T14:24:23;8.65;;;4.85;;
10851;SDS011;5479;52.046;6.314;2022-08-04T14:26:54;9.02;;;5.75;;
10851;SDS011;5479;52.046;6.314;2022-08-04T14:29:31;7.47;;;5.03;;
10851;SDS011;5479;52.046;6.314;2022-08-04T14:32:04;8.88;;;4.90;;
10851;SDS011;5479;52.046;6.314;2022-08-04T14:34:37;6.85;;;4.55;;
10851;SDS011;5479;52.046;6.314;2022-08-04T14:37:06;11.10;;;5.88;;
10851;SDS011;5479;52.046;6.314;2022-08-04T14:39:36;8.30;;;5.03;;
10851;SDS011;5479;52.046;6.314;2022-08-04T14:42:06;6.68;;;4.75;;
10851;SDS011;5479;52.046;6.314;2022-08-04T14:44:51;8.43;;;4.65;;
10851;SDS011;5479;52.046;6.314;2022-08-04T14:47:39;9.15;;;5.15;;
10851;SDS011;5479;52.046;6.314;2022-08-04T14:50:09;9.98;;;4.95;;
10851;SDS011;5479;52.046;6.314;2022-08-04T14:52:37;8.52;;;4.50;;
10851;SDS011;5479;52.046;6.314;2022-08-04T14:57:53;8.63;;;4.10;;
10851;SDS011;5479;52.046;6.314;2022-08-04T15:00:23;6.90;;;4.13;;
10851;SDS011;5479;52.046;6.314;2022-08-04T15:02:53;13.70;;;4.35;;
10851;SDS011;5479;52.046;6.314;2022-08-04T15:05:27;9.18;;;3.95;;
10851;SDS011;5479;52.046;6.314;2022-08-04T15:07:57;8.70;;;4.07;;
10851;SDS011;5479;52.046;6.314;2022-08-04T15:10:25;7.00;;;3.33;;
10851;SDS011;5479;52.046;6.314;2022-08-04T15:12:57;5.97;;;3.38;;
10851;SDS011;5479;52.046;6.314;2022-08-04T15:15:25;5.55;;;3.13;;
10851;SDS011;5479;52.046;6.314;2022-08-04T15:17:53;6.20;;;3.50;;
10851;SDS011;5479;52.046;6.314;2022-08-04T15:20:22;8.82;;;3.65;;
10851;SDS011;5479;52.046;6.314;2022-08-04T15:22:50;6.68;;;3.63;;
10851;SDS011;5479;52.046;6.314;2022-08-04T15:25:18;7.32;;;3.58;;
10851;SDS011;5479;52.046;6.314;2022-08-04T15:27:47;11.52;;;4.05;;
10851;SDS011;5479;52.046;6.314;2022-08-04T15:30:18;7.32;;;3.13;;
10851;SDS011;5479;52.046;6.314;2022-08-04T15:32:47;4.85;;;3.28;;
10851;SDS011;5479;52.046;6.314;2022-08-04T15:35:19;7.97;;;3.70;;
10851;SDS011;5479;52.046;6.314;2022-08-04T15:37:52;5.93;;;3.28;;
10851;SDS011;5479;52.046;6.314;2022-08-04T15:40:27;7.35;;;3.42;;
10851;SDS011;5479;52.046;6.314;2022-08-04T15:43:06;8.88;;;3.55;;
10851;SDS011;5479;52.046;6.314;2022-08-04T15:45:49;6.55;;;3.17;;
10851;SDS011;5479;52.046;6.314;2022-08-04T15:48:22;5.82;;;3.40;;
10851;SDS011;5479;52.046;6.314;2022-08-04T15:51:08;7.65;;;2.90;;
10851;SDS011;5479;52.046;6.314;2022-08-04T15:56:42;8.85;;;3.17;;
10851;SDS011;5479;52.046;6.314;2022-08-04T15:59:11;5.85;;;2.83;;
10851;SDS011;5479;52.046;6.314;2022-08-04T16:01:40;6.78;;;3.00;;
10851;SDS011;5479;52.046;6.314;2022-08-04T16:04:22;5.70;;;2.80;;
10851;SDS011;5479;52.046;6.314;2022-08-04T16:06:51;6.25;;;2.55;;
10851;SDS011;5479;52.046;6.314;2022-08-04T16:09:31;7.57;;;3.38;;
10851;SDS011;5479;52.046;6.314;2022-08-04T16:11:59;5.45;;;2.58;;
10851;SDS011;5479;52.046;6.314;2022-08-04T16:14:32;5.35;;;2.80;;
10851;SDS011;5479;52.046;6.314;2022-08-04T16:17:16;7.18;;;3.22;;
10851;SDS011;5479;52.046;6.314;2022-08-04T16:19:48;5.57;;;3.10;;
10851;SDS011;5479;52.046;6.314;2022-08-04T16:22:33;6.85;;;3.05;;